Time;durP1;ratioP1;P1;durP2;ratioP2;P2;SDS_P1;SDS_P2;PMS_P1;PMS_P2;Temp;Humidity;BMP_temperature;BMP_pressure;BME280_temperature;BME280_humidity;BME280_pressure;Samples;Min_cycle;Max_cycle;Signal;HPM_P1;HPM_P2
2022/10/18 00:02:25;;;;;;;35.65;11.70;;;;;;;13.16;100.00;102643.38;6219835;23;20052;-76
2022/10/18 00:04:52;;;;;;;15.02;11.35;;;;;;;13.17;100.00;102644.88;6220207;23;20079;-75
2022/10/18 00:07:18;;;;;;;19.35;11.05;;;;;;;13.16;100.00;102643.38;6219672;23;20100;-76
2022/10/18 00:09:45;;;;;;;25.40;11.57;;;;;;;13.17;100.00;102634.19;6193442;23;20607;-76
2022/10/18 00:12:11;;;;;;;25.38;11.88;;;;;;;13.17;100.00;102636.09;6220214;23;20051;-75
2022/10/18 00:14:37;;;;;;;45.08;12.32;;;;;;;13.15;100.00;102633.81;6219750;23;20067;-76
2022/10/18 00:17:04;;;;;;;20.20;12.02;;;;;;;13.13;100.00;102638.81;6220066;23;20096;-75
2022/10/18 00:19:30;;;;;;;26.73;12.45;;;;;;;13.14;100.00;102645.69;6219707;23;20057;-76
2022/10/18 00:21:57;;;;;;;15.73;12.20;;;;;;;13.15;100.00;102646.44;6168443;23;20112;-76
2022/10/18 00:24:23;;;;;;;34.95;12.25;;;;;;;13.15;100.00;102635.75;6220069;23;20439;-76
2022/10/18 00:26:49;;;;;;;20.27;12.10;;;;;;;13.15;100.00;102633.06;6220053;23;20047;-76
2022/10/18 00:29:16;;;;;;;18.25;12.35;;;;;;;13.16;100.00;102642.63;6167395;23;20446;-76
2022/10/18 00:31:43;;;;;;;39.85;13.00;;;;;;;13.13;100.00;102646.84;6219960;23;20343;-76
2022/10/18 00:34:15;;;;;;;33.17;13.38;;;;;;;13.13;100.00;102646.84;6219538;23;20020;-76
2022/10/18 00:36:42;;;;;;;16.38;12.35;;;;;;;13.15;100.00;102646.44;6221050;23;20447;-76
2022/10/18 00:39:14;;;;;;;21.50;12.27;;;;;;;13.15;100.00;102649.84;6220969;23;20041;-76
2022/10/18 00:41:40;;;;;;;;;;;;;;;13.17;100.00;102650.22;6222075;23;20057;-76
2022/10/18 00:44:10;;;;;;;16.55;12.18;;;;;;;13.16;100.00;102654.06;6220280;23;19979;-76
2022/10/18 00:46:39;;;;;;;26.10;13.07;;;;;;;13.12;100.00;102650.69;6221245;23;20088;-75
2022/10/18 00:49:29;;;;;;;14.38;11.50;;;;;;;13.13;100.00;102652.19;6194091;23;20193;-76
2022/10/18 00:52:01;;;;;;;16.75;11.18;;;;;;;13.11;100.00;102653.75;6221224;23;20023;-76
2022/10/18 00:54:29;;;;;;;27.27;10.77;;;;;;;13.09;100.00;102651.50;6221129;23;20040;-75
2022/10/18 00:56:56;;;;;;;38.17;11.60;;;;;;;13.10;100.00;102655.69;6194854;23;20055;-76
2022/10/18 00:59:23;;;;;;;46.80;11.50;;;;;;;13.09;100.00;102653.41;6193432;23;20025;-75
2022/10/18 01:01:50;;;;;;;20.85;10.77;;;;;;;13.09;100.00;102656.09;6221396;23;20017;-76
2022/10/18 01:04:18;;;;;;;20.85;10.73;;;;;;;13.09;100.00;102659.53;6221073;23;20017;-76
2022/10/18 01:07:03;;;;;;;14.57;10.45;;;;;;;13.10;100.00;102669.06;6194174;23;20209;-75
2022/10/18 01:09:32;;;;;;;10.88;9.82;;;;;;;13.09;100.00;102659.53;6220671;23;20053;-76
2022/10/18 01:12:02;;;;;;;23.30;9.63;;;;;;;13.09;100.00;102661.44;6221306;23;20100;-76
2022/10/18 01:14:49;;;;;;;21.52;9.68;;;;;;;13.08;100.00;102662.59;6220462;23;20096;-76
2022/10/18 01:17:30;;;;;;;19.83;10.02;;;;;;;13.06;100.00;102660.34;6220881;23;20013;-76
2022/10/18 01:20:10;;;;;;;11.93;9.85;;;;;;;13.05;100.00;102660.75;6221212;23;20020;-76
2022/10/18 01:22:43;;;;;;;15.50;9.10;;;;;;;13.01;100.00;102658.88;6221428;23;20017;-75
2022/10/18 01:25:35;;;;;;;20.73;9.10;;;;;;;13.00;100.00;102659.28;6220867;23;20485;-75
2022/10/18 01:28:17;;;;;;;20.92;9.63;;;;;;;12.96;100.00;102658.59;6220581;23;20013;-75
2022/10/18 01:30:54;;;;;;;10.18;9.18;;;;;;;12.94;100.00;102668.94;6221091;23;20092;-75
2022/10/18 01:33:36;;;;;;;11.90;9.15;;;;;;;12.94;100.00;102679.63;6221007;23;20398;-76
2022/10/18 01:36:18;;;;;;;20.88;9.50;;;;;;;12.96;100.00;102682.66;6221099;23;20013;-76
2022/10/18 01:38:48;;;;;;;18.80;9.90;;;;;;;12.96;100.00;102688.00;6221149;23;20020;-76
2022/10/18 01:41:18;;;;;;;14.32;9.48;;;;;;;12.95;100.00;102675.81;6220236;23;20025;-76
2022/10/18 01:43:47;;;;;;;20.20;9.02;;;;;;;12.90;100.00;102677.03;6220600;23;20095;-75
2022/10/18 01:46:18;;;;;;;19.42;8.73;;;;;;;12.88;100.00;102674.00;6220434;23;20476;-76
2022/10/18 01:48:45;;;;;;;14.80;8.93;;;;;;;12.90;100.00;102682.38;6220882;23;20047;-76
2022/10/18 01:51:12;;;;;;;9.77;8.80;;;;;;;12.91;100.00;102675.09;6220751;23;20437;-76
2022/10/18 01:53:38;;;;;;;9.90;8.73;;;;;;;12.90;100.00;102663.66;6221014;23;20080;-76
2022/10/18 01:56:13;;;;;;;8.65;7.90;;;;;;;12.90;100.00;102674.34;6220508;23;20092;-76
2022/10/18 01:59:01;;;;;;;9.35;8.50;;;;;;;12.87;100.00;102669.06;6221207;23;20044;-76
2022/10/18 02:01:39;;;;;;;15.65;8.35;;;;;;;12.84;100.00;102670.63;6220754;23;20021;-76
2022/10/18 02:04:30;;;;;;;8.77;7.90;;;;;;;12.81;100.00;102668.78;6220965;23;20450;-76
2022/10/18 02:07:06;;;;;;;14.13;8.20;;;;;;;12.78;100.00;102668.88;6200699;23;20459;-76
2022/10/18 02:09:41;;;;;;;12.48;8.30;;;;;;;12.77;100.00;102672.69;6220859;23;20013;-76
2022/10/18 02:12:12;;;;;;;12.90;8.40;;;;;;;12.73;100.00;102664.75;6220127;23;20104;-75
2022/10/18 02:14:41;;;;;;;12.60;8.57;;;;;;;12.72;100.00;102667.81;6221252;23;20526;-75
2022/10/18 02:17:11;;;;;;;9.93;7.93;;;;;;;12.69;100.00;102670.13;6220603;23;20279;-75
2022/10/18 02:19:42;;;;;;;9.88;8.07;;;;;;;12.69;100.00;102674.72;6220671;23;20052;-75
2022/10/18 02:22:10;;;;;;;11.47;7.57;;;;;;;12.69;100.00;102670.13;6220412;23;20096;-75
2022/10/18 02:24:43;;;;;;;12.82;8.50;;;;;;;12.69;100.00;102677.41;6220319;23;20044;-76
2022/10/18 02:27:10;;;;;;;20.13;8.73;;;;;;;12.67;100.00;102674.38;6194167;23;20080;-76
2022/10/18 02:29:38;;;;;;;21.92;7.97;;;;;;;12.63;100.00;102673.69;6221069;23;20013;-75
2022/10/18 02:32:16;;;;;;;30.45;8.65;;;;;;;12.60;100.00;102671.81;6220759;23;20084;-75
2022/10/18 02:34:51;;;;;;;12.40;8.55;;;;;;;12.57;100.00;102676.06;6194056;23;20029;-75
2022/10/18 02:37:19;;;;;;;19.08;8.60;;;;;;;12.55;100.00;102672.28;6220487;23;20080;-76
2022/10/18 02:39:48;;;;;;;9.10;8.30;;;;;;;12.51;100.00;102674.25;6220203;23;20060;-76
2022/10/18 02:42:14;;;;;;;22.38;8.50;;;;;;;12.50;100.00;102681.50;6220380;23;20021;-76
2022/10/18 02:44:41;;;;;;;8.23;7.50;;;;;;;12.47;100.00;102668.97;6220228;23;20045;-76
2022/10/18 02:47:09;;;;;;;10.20;8.18;;;;;;;12.43;100.00;102676.28;6193794;23;20105;-76
2022/10/18 02:49:36;;;;;;;14.50;7.85;;;;;;;12.38;100.00;102671.41;6220917;23;20013;-75
2022/10/18 02:52:02;;;;;;;12.07;8.30;;;;;;;12.36;100.00;102671.06;6220631;23;20092;-76
2022/10/18 02:54:29;;;;;;;9.48;7.93;;;;;;;12.34;100.00;102676.81;6219760;23;20056;-76
2022/10/18 02:56:55;;;;;;;17.38;7.68;;;;;;;12.31;100.00;102682.94;6220557;23;20045;-75
2022/10/18 02:59:21;;;;;;;12.05;8.20;;;;;;;12.30;100.00;102684.09;6219734;23;20089;-75
2022/10/18 03:01:48;;;;;;;12.85;7.72;;;;;;;12.29;100.00;102671.91;6220537;23;20493;-75
2022/10/18 03:04:15;;;;;;;9.88;8.38;;;;;;;12.26;100.00;102655.94;6220164;23;20052;-75
2022/10/18 03:06:41;;;;;;;8.20;7.50;;;;;;;12.26;100.00;102666.63;6220653;23;20013;-75
2022/10/18 03:09:08;;;;;;;8.38;7.32;;;;;;;12.25;100.00;102662.44;6219850;23;20440;-76
2022/10/18 03:11:35;;;;;;;8.50;7.75;;;;;;;12.23;100.00;102664.75;6220457;23;20063;-76
2022/10/18 03:14:01;;;;;;;13.13;7.30;;;;;;;12.20;100.00;102678.91;6220785;23;20020;-76
2022/10/18 03:16:28;;;;;;;8.90;8.10;;;;;;;12.19;100.00;102672.81;6220282;23;20093;-76
2022/10/18 03:18:54;;;;;;;10.07;7.82;;;;;;;12.16;100.00;102680.88;6193694;23;20096;-76
2022/10/18 03:21:21;;;;;;;8.95;8.05;;;;;;;12.12;100.00;102680.94;6220002;23;20457;-75
2022/10/18 03:23:47;;;;;;;9.82;7.68;;;;;;;12.10;100.00;102687.81;6219908;23;20096;-75
2022/10/18 03:26:14;;;;;;;8.60;7.05;;;;;;;12.11;100.00;102673.31;6220214;23;20021;-76
2022/10/18 03:28:40;;;;;;;22.48;7.93;;;;;;;12.06;100.00;102676.44;6220376;23;20092;-75
2022/10/18 03:31:06;;;;;;;12.70;7.72;;;;;;;12.04;100.00;102682.19;6220498;23;20092;-75
2022/10/18 03:33:33;;;;;;;17.27;8.10;;;;;;;12.02;100.00;102684.50;6220539;23;20044;-76
2022/10/18 03:35:59;;;;;;;7.60;7.10;;;;;;;11.98;100.00;102681.91;6220493;23;20442;-76
2022/10/18 03:38:26;;;;;;;9.80;7.45;;;;;;;11.96;100.00;102670.09;6219356;23;20024;-76
2022/10/18 03:40:52;;;;;;;30.08;7.22;;;;;;;11.97;100.00;102671.63;6220527;23;20085;-76
2022/10/18 03:43:19;;;;;;;8.40;7.60;;;;;;;11.95;100.00;102679.28;6219447;23;20092;-75
2022/10/18 03:45:45;;;;;;;7.93;7.22;;;;;;;11.91;100.00;102676.66;6193913;23;20463;-76
2022/10/18 03:48:12;;;;;;;8.27;7.28;;;;;;;11.90;100.00;102679.72;6219981;23;20023;-76
2022/10/18 03:50:38;;;;;;;8.00;7.15;;;;;;;11.87;100.00;102675.94;6220385;23;20465;-76
2022/10/18 03:53:04;;;;;;;17.25;7.18;;;;;;;11.84;100.00;102676.72;6219650;23;20048;-75
2022/10/18 03:55:31;;;;;;;8.27;6.78;;;;;;;11.79;100.00;102679.09;6220091;23;20457;-76
2022/10/18 03:57:57;;;;;;;8.15;7.07;;;;;;;11.75;100.00;102687.09;6220357;23;20013;-76
2022/10/18 04:00:24;;;;;;;7.28;6.57;;;;;;;11.68;100.00;102679.94;6220017;23;20017;-75
2022/10/18 04:02:50;;;;;;;7.40;6.75;;;;;;;11.67;100.00;102677.66;6220227;23;20017;-76
2022/10/18 04:05:22;;;;;;;7.50;6.90;;;;;;;11.65;100.00;102670.06;6220044;23;20017;-76
2022/10/18 04:07:49;;;;;;;9.18;6.32;;;;;;;11.62;100.00;102665.53;6219357;23;20088;-75
2022/10/18 04:10:17;;;;;;;6.93;6.32;;;;;;;11.55;100.00;102676.31;6219610;23;20100;-76
2022/10/18 04:12:43;;;;;;;10.02;6.35;;;;;;;11.49;100.00;102677.13;6220318;23;20044;-76
2022/10/18 04:15:10;;;;;;;7.53;6.32;;;;;;;11.45;100.00;102671.84;6219840;23;20028;-76
2022/10/18 04:17:36;;;;;;;7.03;6.53;;;;;;;11.40;100.00;102668.84;6220184;23;20777;-76
2022/10/18 04:20:03;;;;;;;6.68;6.07;;;;;;;11.38;100.00;102668.50;6220094;23;20041;-76
2022/10/18 04:22:30;;;;;;;6.70;6.10;;;;;;;11.35;100.00;102676.13;6219032;23;20108;-76
2022/10/18 04:24:56;;;;;;;6.78;6.03;;;;;;;11.33;100.00;102686.44;6220122;23;20067;-76
2022/10/18 04:27:23;;;;;;;8.05;6.13;;;;;;;11.29;100.00;102676.97;6219680;23;20084;-75
2022/10/18 04:29:49;;;;;;;9.82;5.75;;;;;;;11.29;100.00;102672.38;6220138;23;20462;-75
2022/10/18 04:32:16;;;;;;;8.15;6.53;;;;;;;11.27;100.00;102676.59;6219583;23;20093;-76
2022/10/18 04:34:42;;;;;;;7.63;6.93;;;;;;;11.25;100.00;102674.34;6219966;23;20019;-75
2022/10/18 04:37:13;;;;;;;9.63;6.63;;;;;;;11.23;100.00;102671.31;6219087;23;20048;-75
2022/10/18 04:39:40;;;;;;;37.38;7.55;;;;;;;11.15;100.00;102669.88;6219745;23;20422;-75
2022/10/18 04:42:06;;;;;;;9.80;6.65;;;;;;;11.17;100.00;102669.50;6192932;23;20497;-76
2022/10/18 04:44:33;;;;;;;26.10;6.85;;;;;;;11.15;100.00;102675.22;6219561;23;20041;-75
2022/10/18 04:46:59;;;;;;;17.63;6.53;;;;;;;11.12;100.00;102673.34;6219970;23;20096;-76
2022/10/18 04:49:26;;;;;;;19.92;6.85;;;;;;;11.10;100.00;102670.31;6219493;23;20088;-75
2022/10/18 04:51:52;;;;;;;15.68;7.65;;;;;;;11.11;100.00;102673.75;6219374;23;20020;-75
2022/10/18 04:54:18;;;;;;;15.88;6.72;;;;;;;11.10;100.00;102672.22;6219594;23;20013;-75
2022/10/18 04:56:48;;;;;;;18.35;6.70;;;;;;;11.07;100.00;102678.34;6219889;23;20017;-76
2022/10/18 04:59:14;;;;;;;26.55;7.00;;;;;;;11.06;100.00;102680.25;6219596;23;20025;-75
2022/10/18 05:01:40;;;;;;;12.25;7.15;;;;;;;11.03;100.00;102675.72;6219577;23;20216;-75
2022/10/18 05:04:08;;;;;;;11.88;7.15;;;;;;;11.00;100.00;102687.16;6218652;23;20021;-75
2022/10/18 05:06:34;;;;;;;11.43;6.82;;;;;;;10.96;100.00;102676.53;6219406;23;20017;-76
2022/10/18 05:09:01;;;;;;;7.68;6.88;;;;;;;10.94;100.00;102676.16;6219534;23;20101;-76
2022/10/18 05:11:27;;;;;;;17.00;6.50;;;;;;;10.95;100.00;102682.25;6219482;23;20027;-76
2022/10/18 05:13:54;;;;;;;9.93;6.80;;;;;;;10.93;100.00;102687.97;6219661;23;20084;-75
2022/10/18 05:16:20;;;;;;;6.88;6.32;;;;;;;10.90;100.00;102690.66;6219085;23;20019;-76
2022/10/18 05:18:47;;;;;;;17.55;6.53;;;;;;;10.84;100.00;102690.34;6218944;23;20418;-76
2022/10/18 05:21:13;;;;;;;22.13;6.63;;;;;;;10.84;100.00;102690.34;6219528;23;20394;-76
2022/10/18 05:23:40;;;;;;;20.08;7.30;;;;;;;10.83;100.00;102691.47;6221002;23;20468;-76
2022/10/18 05:26:08;;;;;;;8.02;6.07;;;;;;;10.79;100.00;102701.44;6221105;23;20013;-75
2022/10/18 05:28:36;;;;;;;13.80;5.82;;;;;;;10.79;100.00;102700.69;6221008;23;20017;-75
2022/10/18 05:31:07;;;;;;;;;;;;;;;10.80;100.00;102707.50;6221412;23;20021;-75
2022/10/18 05:33:33;;;;;;;6.47;5.88;;;;;;;10.75;100.00;102714.03;6220768;23;20006;-75
2022/10/18 05:36:00;;;;;;;12.68;5.75;;;;;;;10.76;100.00;102715.53;6220844;23;20017;-75
2022/10/18 05:38:29;;;;;;;7.90;6.00;;;;;;;10.73;100.00;102713.66;6220643;23;20017;-75
2022/10/18 05:41:02;;;;;;;7.90;5.97;;;;;;;10.73;100.00;102708.34;6220638;23;20017;-75
2022/10/18 05:43:29;;;;;;;19.20;5.80;;;;;;;10.71;100.00;102713.28;6220152;23;20427;-75
2022/10/18 05:45:55;;;;;;;16.17;5.97;;;;;;;10.73;100.00;102716.31;6220813;23;20080;-75
2022/10/18 05:48:22;;;;;;;13.45;6.35;;;;;;;10.72;100.00;102714.81;6219926;23;20017;-75
2022/10/18 05:50:48;;;;;;;9.63;7.10;;;;;;;10.73;100.00;102724.31;6221185;23;20080;-75
2022/10/18 05:53:15;;;;;;;7.35;6.70;;;;;;;10.72;100.00;102717.47;6221814;23;20423;-75
2022/10/18 05:56:02;;;;;;;14.52;5.93;;;;;;;10.73;100.00;102724.31;6221761;23;20027;-76
2022/10/18 05:58:29;;;;;;;6.85;6.00;;;;;;;10.73;100.00;102728.88;6194650;23;20025;-75
2022/10/18 06:01:03;;;;;;;8.65;6.40;;;;;;;10.74;100.00;102731.16;6220875;23;20092;-75
2022/10/18 06:03:29;;;;;;;19.38;6.63;;;;;;;10.72;100.00;102730.78;6220025;23;20101;-76
2022/10/18 06:06:04;;;;;;;6.63;5.90;;;;;;;10.72;100.00;102746.00;6220378;23;20017;-74
2022/10/18 06:08:31;;;;;;;51.47;7.28;;;;;;;10.70;100.00;102751.72;6220576;23;20099;-77
2022/10/18 06:10:58;;;;;;;19.65;6.32;;;;;;;10.68;100.00;102752.13;6221267;23;20084;-76
2022/10/18 06:13:24;;;;;;;31.95;6.80;;;;;;;10.69;100.00;102744.88;6221498;23;20084;-77
2022/10/18 06:15:56;;;;;;;16.05;5.45;;;;;;;10.70;100.00;102746.41;6194318;23;20061;-79
2022/10/18 06:18:22;;;;;;;8.93;6.43;;;;;;;10.69;100.00;102758.97;6220790;23;20080;-78
2022/10/18 06:20:48;;;;;;;6.78;5.70;;;;;;;10.69;100.00;102766.97;6194349;23;20201;-80
2022/10/18 06:23:15;;;;;;;12.05;5.10;;;;;;;10.65;100.00;102768.88;6169602;23;20526;-78
2022/10/18 06:25:41;;;;;;;11.73;5.28;;;;;;;10.64;100.00;102758.63;6221265;23;20085;-79
2022/10/18 06:28:08;;;;;;;35.92;5.82;;;;;;;10.59;100.00;102765.13;6221659;23;20040;-79
2022/10/18 06:30:37;;;;;;;8.82;5.63;;;;;;;10.54;100.00;102780.75;6221214;23;20458;-79
2022/10/18 06:33:04;;;;;;;6.65;5.60;;;;;;;10.53;100.00;102781.88;6220694;23;20053;-79
2022/10/18 06:35:30;;;;;;;6.78;4.82;;;;;;;10.51;100.00;102779.63;6221233;23;20040;-78
2022/10/18 06:37:56;;;;;;;9.68;4.80;;;;;;;10.50;100.00;102783.41;6221500;23;20024;-78
2022/10/18 06:40:23;;;;;;;5.28;4.72;;;;;;;10.48;100.00;102787.63;6194574;23;20017;-78
2022/10/18 06:42:50;;;;;;;30.13;5.20;;;;;;;10.46;100.00;102790.66;6220898;23;20021;-78
2022/10/18 06:45:26;;;;;;;7.80;5.97;;;;;;;10.44;100.00;102794.88;6221224;23;20435;-78
2022/10/18 06:47:52;;;;;;;31.77;5.68;;;;;;;10.43;100.00;102796.78;6220755;23;20021;-80
2022/10/18 06:50:18;;;;;;;9.55;5.80;;;;;;;10.46;100.00;102797.91;6195157;23;20091;-78
2022/10/18 06:52:47;;;;;;;23.77;5.63;;;;;;;10.45;100.00;102802.47;6221316;23;20096;-78
2022/10/18 06:55:14;;;;;;;14.32;5.53;;;;;;;10.46;100.00;102803.97;6221137;23;20092;-81
2022/10/18 06:57:40;;;;;;;8.32;5.05;;;;;;;10.45;100.00;102813.13;6221342;23;20025;-79
2022/10/18 07:00:07;;;;;;;21.15;5.70;;;;;;;10.46;100.00;102808.56;6220590;23;20407;-79
2022/10/18 07:02:34;;;;;;;11.98;5.38;;;;;;;10.48;100.00;102812.34;6194769;23;20054;-79
2022/10/18 07:05:00;;;;;;;27.77;5.40;;;;;;;10.51;100.00;102816.13;6221409;23;20048;-79
2022/10/18 07:07:29;;;;;;;10.32;5.88;;;;;;;10.56;100.00;102824.47;6221316;23;20021;-79
2022/10/18 07:09:56;;;;;;;14.48;5.50;;;;;;;10.61;100.00;102821.41;6221125;23;20013;-79
2022/10/18 07:12:23;;;;;;;6.63;5.75;;;;;;;10.66;100.00;102830.91;6221458;23;20428;-79
2022/10/18 07:14:50;;;;;;;14.02;5.00;;;;;;;10.74;100.00;102832.38;6220839;23;20498;-78
2022/10/18 07:17:16;;;;;;;7.57;4.60;;;;;;;10.81;100.00;102829.66;6220576;23;20028;-79
2022/10/18 07:19:42;;;;;;;5.72;5.25;;;;;;;10.87;100.00;102833.44;6220628;23;20089;-78
2022/10/18 07:22:09;;;;;;;5.15;4.78;;;;;;;10.97;100.00;102837.19;6220835;23;20523;-79
2022/10/18 07:24:35;;;;;;;5.53;5.03;;;;;;;11.05;100.00;102838.66;6219979;23;20021;-79
2022/10/18 07:27:02;;;;;;;6.47;5.00;;;;;;;11.11;100.00;102834.41;6221115;23;20017;-77
2022/10/18 07:29:28;;;;;;;10.98;5.32;;;;;;;11.16;100.00;102827.91;6219807;23;20423;-81
2022/10/18 07:31:55;;;;;;;7.85;5.22;;;;;;;11.25;100.00;102836.97;6220701;23;20017;-78
2022/10/18 07:34:21;;;;;;;6.03;4.88;;;;;;;11.36;100.00;102850.22;6220738;23;20013;-78
2022/10/18 07:36:48;;;;;;;6.47;5.03;;;;;;;11.44;100.00;102853.59;6220956;23;20494;-78
2022/10/18 07:39:15;;;;;;;10.23;5.68;;;;;;;11.54;100.00;102858.84;6221152;23;20072;-78
2022/10/18 07:41:41;;;;;;;10.07;5.72;;;;;;;11.64;100.00;102852.63;6221195;23;20092;-79
2022/10/18 07:44:08;;;;;;;23.80;5.93;;;;;;;11.74;100.00;102858.25;6219649;23;20096;-78
2022/10/18 07:46:35;;;;;;;9.35;5.75;;;;;;;11.82;100.00;102852.50;6221005;23;20056;-79
2022/10/18 07:49:01;;;;;;;10.57;6.00;;;;;;;11.91;100.00;102857.38;6221045;23;20055;-79
2022/10/18 07:51:29;;;;;;;7.35;5.78;;;;;;;11.96;100.00;102855.03;6220933;23;20488;-79
2022/10/18 07:53:56;;;;;;;10.90;6.05;;;;;;;12.06;100.00;102858.72;6194100;23;20017;-79
2022/10/18 07:56:22;;;;;;;7.18;5.90;;;;;;;12.16;100.00;102875.78;6220879;23;20055;-78
2022/10/18 07:58:52;;;;;;;7.55;6.07;;;;;;;12.27;100.00;102874.50;6220328;23;20017;-78
2022/10/18 08:01:21;;;;;;;7.68;5.75;;;;;;;12.40;100.00;102877.41;6220934;23;20072;-79
2022/10/18 08:03:48;;;;;;;7.85;5.38;;;;;;;12.50;100.00;102879.19;6193259;23;20025;-79
2022/10/18 08:06:17;;;;;;;5.78;5.28;;;;;;;12.57;100.00;102875.66;6220581;23;20521;-79
2022/10/18 08:08:44;;;;;;;7.90;5.68;;;;;;;12.67;100.00;102882.81;6220410;23;20017;-79
2022/10/18 08:11:18;;;;;;;6.28;5.68;;;;;;;12.80;100.00;102877.66;6220547;23;20820;-79
2022/10/18 08:13:45;;;;;;;6.47;5.88;;;;;;;12.91;100.00;102883.63;6220193;23;20029;-78
2022/10/18 08:16:15;;;;;;;7.30;5.68;;;;;;;13.01;100.00;102885.38;6220675;23;20733;-78
2022/10/18 08:18:42;;;;;;;9.10;5.20;;;;;;;13.07;100.00;102883.78;6221084;23;20096;-79
2022/10/18 08:21:10;;;;;;;7.20;5.45;;;;;;;13.11;100.00;102892.50;6193783;23;20091;-78
2022/10/18 08:23:37;;;;;;;6.00;5.40;;;;;;;13.17;100.00;102880.22;6220377;23;20038;-78
2022/10/18 08:26:07;;;;;;;6.70;5.55;;;;;;;13.27;100.00;102886.53;6220366;23;20021;-78
2022/10/18 08:28:35;;;;;;;6.28;5.50;;;;;;;13.32;100.00;102891.44;6219966;23;20120;-78
2022/10/18 08:31:04;;;;;;;7.00;5.25;;;;;;;13.40;100.00;102898.19;6220613;23;20080;-79
2022/10/18 08:33:31;;;;;;;6.03;5.38;;;;;;;13.46;100.00;102899.25;6220343;23;20067;-84
2022/10/18 08:36:00;;;;;;;10.65;5.25;;;;;;;13.51;100.00;102898.78;6220474;23;20017;-78
2022/10/18 08:38:30;;;;;;;6.07;5.57;;;;;;;13.57;100.00;102891.81;6220611;23;20483;-76
2022/10/18 08:41:16;;;;;;;7.90;5.43;;;;;;;13.57;100.00;102889.13;6220579;23;20415;-78
2022/10/18 08:44:06;;;;;;;5.55;5.05;;;;;;;13.62;100.00;102888.63;6219690;23;20092;-77
2022/10/18 08:46:36;;;;;;;5.65;5.25;;;;;;;13.67;100.00;102885.50;6220413;23;20017;-78
2022/10/18 08:49:04;;;;;;;7.05;5.28;;;;;;;13.73;100.00;102893.81;6220094;23;20023;-78
2022/10/18 08:51:38;;;;;;;6.55;5.93;;;;;;;13.77;100.00;102889.16;6220452;23;20155;-77
2022/10/18 08:54:14;;;;;;;6.45;5.32;;;;;;;13.84;100.00;102886.34;6220328;23;20052;-77
2022/10/18 08:56:45;;;;;;;6.80;5.65;;;;;;;13.90;100.00;102886.63;6220362;23;20028;-77
2022/10/18 08:59:12;;;;;;;6.28;5.80;;;;;;;13.95;100.00;102886.94;6221753;23;20013;-77
2022/10/18 09:01:51;;;;;;;10.40;6.10;;;;;;;14.03;100.00;102884.84;6221369;23;20089;-76
2022/10/18 09:04:45;;;;;;;5.95;5.18;;;;;;;14.09;100.00;102883.19;6221541;23;20084;-75
2022/10/18 09:07:18;;;;;;;12.57;5.70;;;;;;;14.19;100.00;102889.53;6221817;23;20021;-77
2022/10/18 09:10:07;;;;;;;9.15;5.20;;;;;;;14.29;99.81;102888.56;6221905;23;20080;-80
2022/10/18 09:13:10;;;;;;;8.43;4.88;;;;;;;14.41;98.94;102903.25;6221432;23;20440;-77
2022/10/18 09:15:57;;;;;;;6.05;4.05;;;;;;;14.45;97.44;102899.34;6221602;23;20041;-77
2022/10/18 09:18:47;;;;;;;10.55;4.20;;;;;;;14.53;96.72;102905.34;6221536;23;20076;-77
2022/10/18 09:21:22;;;;;;;9.57;3.40;;;;;;;14.63;95.58;102899.00;6221631;23;20510;-76
2022/10/18 09:24:03;;;;;;;9.65;3.53;;;;;;;14.72;96.06;102898.44;6221666;23;20099;-76
2022/10/18 09:26:44;;;;;;;9.60;3.17;;;;;;;14.81;95.47;102910.09;6221057;23;20013;-77
2022/10/18 09:29:23;;;;;;;4.60;2.95;;;;;;;14.91;95.42;102919.06;6194861;23;20048;-77
2022/10/18 09:32:17;;;;;;;12.10;2.80;;;;;;;14.97;94.49;102914.72;6221947;23;20047;-77
2022/10/18 09:35:16;;;;;;;10.70;2.40;;;;;;;15.06;94.71;102914.91;6221608;23;20016;-77
2022/10/18 09:37:44;;;;;;;6.95;2.70;;;;;;;15.08;94.31;102923.31;6022736;23;20409;-76
2022/10/18 09:40:18;;;;;;;4.35;1.90;;;;;;;15.16;94.42;102930.03;6070091;23;20086;-76
2022/10/18 09:42:50;;;;;;;11.48;2.45;;;;;;;15.16;90.18;102921.97;6046397;23;20019;-78
2022/10/18 09:45:33;;;;;;;8.05;1.58;;;;;;;15.19;87.90;102915.00;6046509;23;20106;-77
2022/10/18 09:48:26;;;;;;;9.38;2.25;;;;;;;15.22;87.71;102922.94;6070181;23;20398;-77
2022/10/18 09:51:00;;;;;;;4.78;1.55;;;;;;;15.26;86.24;102930.94;6046693;23;20091;-78
2022/10/18 09:53:59;;;;;;;8.25;2.03;;;;;;;15.29;86.53;102927.41;6047087;23;20546;-77
2022/10/18 09:56:33;;;;;;;9.18;1.73;;;;;;;15.34;87.62;102927.66;6070456;23;20111;-77
2022/10/18 09:59:22;;;;;;;7.03;1.55;;;;;;;15.35;85.54;102928.41;6070991;23;20075;-77
2022/10/18 10:01:48;;;;;;;5.10;1.50;;;;;;;15.33;82.66;102931.50;6071014;23;20027;-77
2022/10/18 10:04:15;;;;;;;4.65;1.30;;;;;;;15.34;83.72;102935.72;6070723;23;20029;-84
2022/10/18 10:06:49;;;;;;;5.60;1.52;;;;;;;15.38;82.73;102930.25;6046480;23;20103;-89
2022/10/18 10:09:17;;;;;;;3.83;1.00;;;;;;;15.38;81.52;102934.88;6045920;23;20442;-82
2022/10/18 10:11:49;;;;;;;6.45;1.25;;;;;;;15.37;80.21;102936.81;6071939;23;20023;-79
2022/10/18 10:14:25;;;;;;;6.75;1.40;;;;;;;15.39;78.98;102939.81;6139101;23;20038;-79
2022/10/18 10:16:58;;;;;;;8.30;1.42;;;;;;;15.34;77.45;102938.41;6196238;23;20048;-80
2022/10/18 10:19:53;;;;;;;4.75;1.23;;;;;;;15.37;79.14;102941.41;6193555;23;20014;-79
2022/10/18 10:22:27;;;;;;;3.10;0.93;;;;;;;15.39;77.06;102942.50;6191421;23;20078;-79
2022/10/18 10:24:54;;;;;;;5.38;1.80;;;;;;;15.37;73.88;102938.72;6190724;23;20459;-80
2022/10/18 10:27:29;;;;;;;8.52;1.58;;;;;;;15.40;76.26;102940.56;6191462;23;20818;-80
2022/10/18 10:29:58;;;;;;;6.38;1.45;;;;;;;15.36;76.14;102943.34;6191279;23;20014;-79
2022/10/18 10:32:45;;;;;;;5.53;1.52;;;;;;;15.38;75.32;102945.59;6191315;23;20511;-79
2022/10/18 10:35:20;;;;;;;4.97;1.20;;;;;;;15.38;75.71;102949.03;6191066;23;20145;-79
2022/10/18 10:38:22;;;;;;;4.57;1.15;;;;;;;15.39;76.05;102947.13;6189103;23;20017;-79
2022/10/18 10:40:49;;;;;;;3.70;1.45;;;;;;;15.40;75.94;102956.69;6191163;23;20014;-80
2022/10/18 10:43:20;;;;;;;8.60;1.33;;;;;;;15.45;77.09;102954.25;6197234;23;20394;-79
2022/10/18 10:46:17;;;;;;;4.75;1.20;;;;;;;15.53;78.71;102949.47;6220911;23;20047;-79
2022/10/18 10:48:44;;;;;;;6.53;1.40;;;;;;;15.51;75.26;102951.81;6194350;23;20021;-78
2022/10/18 10:51:11;;;;;;;445.95;331.55;;;;;;;15.52;74.90;102964.81;6221108;23;20092;-78
2022/10/18 10:53:49;;;;;;;9.40;5.43;;;;;;;15.51;74.71;102963.31;6220388;23;20097;-77
2022/10/18 10:56:26;;;;;;;5.78;3.30;;;;;;;15.51;74.83;102959.88;6194576;23;20064;-77
2022/10/18 10:58:54;;;;;;;5.50;2.75;;;;;;;15.52;72.64;102961.38;6221519;23;20108;-77
2022/10/18 11:01:26;;;;;;;7.22;1.75;;;;;;;15.51;70.36;102966.00;6194068;23;20382;-77
2022/10/18 11:03:55;;;;;;;6.40;1.58;;;;;;;15.51;71.30;102967.94;6221214;23;20025;-77
2022/10/18 11:06:43;;;;;;;4.32;1.13;;;;;;;15.48;72.20;102961.47;6221186;23;20076;-78
2022/10/18 11:09:21;;;;;;;9.63;1.20;;;;;;;15.50;72.42;102963.72;6221309;23;20406;-77
2022/10/18 11:11:59;;;;;;;6.80;1.50;;;;;;;15.50;71.32;102963.72;6221388;23;20092;-81
2022/10/18 11:14:32;;;;;;;8.20;1.40;;;;;;;15.51;72.40;102971.38;6221287;23;20087;-78
2022/10/18 11:17:09;;;;;;;2.58;0.85;;;;;;;15.55;71.02;102966.66;6194397;23;20499;-77
2022/10/18 11:19:48;;;;;;;5.00;1.33;;;;;;;15.57;72.20;102966.28;6220330;23;20052;-77
2022/10/18 11:22:20;;;;;;;1.88;1.02;;;;;;;15.56;70.18;102965.53;6220581;23;20061;-78
2022/10/18 11:24:47;;;;;;;7.65;1.17;;;;;;;15.58;70.54;102955.13;6220879;23;20056;-78
2022/10/18 11:27:26;;;;;;;7.53;1.50;;;;;;;15.60;70.08;102968.84;6221106;23;20020;-78
2022/10/18 11:30:13;;;;;;;4.80;0.77;;;;;;;15.62;70.82;102955.75;6194834;23;20024;-81
2022/10/18 11:32:53;;;;;;;4.43;1.20;;;;;;;15.65;71.95;102956.84;6220698;23;20087;-78